Time;durP1;ratioP1;P1;durP2;ratioP2;P2;SDS_P1;SDS_P2;PMS_P1;PMS_P2;Temp;Humidity;BMP_temperature;BMP_pressure;BME280_temperature;BME280_humidity;BME280_pressure;Samples;Min_cycle;Max_cycle;Signal;HPM_P1;HPM_P2
2022/11/24 00:00:16;;;;;;;4.43;1.30;;;;;;;20.57;47.03;99499.69;10228622;27;66329;-76
2022/11/24 00:05:09;;;;;;;2.38;1.30;;;;;;;20.56;47.08;99502.78;10226049;27;66212;-76
2022/11/24 00:10:01;;;;;;;4.20;1.52;;;;;;;20.61;46.91;99514.38;10224998;27;65186;-75
2022/11/24 00:14:53;;;;;;;3.75;1.35;;;;;;;20.74;46.80;99504.28;10230648;27;66391;-75
2022/11/24 00:19:46;;;;;;;5.15;1.60;;;;;;;20.72;46.86;99506.53;10227438;27;65584;-72
2022/11/24 00:24:39;;;;;;;2.72;1.50;;;;;;;20.72;47.45;99514.81;10224515;27;66288;-74
2022/11/24 00:29:31;;;;;;;3.40;1.42;;;;;;;20.72;46.98;99520.31;10227678;27;65408;-74
2022/11/24 00:34:23;;;;;;;1.63;1.10;;;;;;;20.72;46.87;99523.06;10228183;27;65424;-76
2022/11/24 00:39:16;;;;;;;3.50;1.45;;;;;;;20.71;46.79;99522.28;10224094;27;65493;-77
2022/11/24 00:44:09;;;;;;;4.25;1.58;;;;;;;20.71;46.72;99514.00;10227883;27;65605;-79
2022/11/24 00:49:01;;;;;;;6.45;1.48;;;;;;;20.89;46.23;99522.94;10227571;27;65473;-78
2022/11/24 00:53:55;;;;;;;4.25;1.30;;;;;;;20.77;46.49;99525.63;10230300;27;65985;-79
2022/11/24 00:58:47;;;;;;;4.07;1.65;;;;;;;20.64;46.83;99541.28;10237251;27;66548;-77
2022/11/24 01:03:41;;;;;;;1.98;1.27;;;;;;;20.82;46.41;99547.47;10236801;27;65942;-79
2022/11/24 01:08:33;;;;;;;6.70;1.33;;;;;;;20.75;46.63;99552.72;10234864;27;66085;-78
2022/11/24 01:13:27;;;;;;;4.57;1.33;;;;;;;20.71;46.66;99563.59;10222556;27;66568;-78
2022/11/24 01:18:19;;;;;;;1.92;1.27;;;;;;;20.66;46.88;99565.75;10230752;27;66375;-77
2022/11/24 01:23:13;;;;;;;3.65;1.40;;;;;;;20.63;46.86;99566.41;10232950;27;65518;-76
2022/11/24 01:28:05;;;;;;;2.33;1.42;;;;;;;20.62;46.86;99575.78;10229166;27;65419;-80
2022/11/24 01:32:57;;;;;;;2.00;1.25;;;;;;;20.68;46.69;99579.97;10235406;27;65525;-77
2022/11/24 01:37:49;;;;;;;2.38;1.42;;;;;;;20.73;46.55;99588.06;10227943;27;65187;-77
2022/11/24 09:48:22;;;;;;;7.63;2.47;;;;;;;16.50;52.54;99952.09;10262226;27;1296658;-75
2022/11/24 09:53:16;;;;;;;11.57;2.67;;;;;;;17.10;51.25;99942.06;10294244;27;66519;-76
2022/11/24 09:58:29;;;;;;;8.85;2.42;;;;;;;17.41;50.86;99950.56;10293423;27;66063;-76
2022/11/24 10:03:25;;;;;;;6.78;2.28;;;;;;;17.85;49.99;99963.69;10290162;27;66416;-76
2022/11/24 10:08:40;;;;;;;8.77;2.35;;;;;;;17.86;49.88;99967.25;10292862;27;65669;-77
2022/11/24 10:13:41;;;;;;;6.72;2.45;;;;;;;17.95;49.67;99974.44;10291489;27;66380;-76
2022/11/24 10:18:48;;;;;;;6.55;2.20;;;;;;;18.22;49.13;99979.09;10296215;27;66516;-76
2022/11/24 10:23:50;;;;;;;6.93;2.05;;;;;;;18.19;49.50;99979.69;10288686;27;66223;-77
2022/11/24 10:28:46;;;;;;;9.18;2.25;;;;;;;18.24;49.52;99983.13;10271260;27;66352;-79
2022/11/24 10:33:39;;;;;;;7.65;2.28;;;;;;;18.27;49.57;99992.69;10286648;27;66607;-77
2022/11/24 10:38:35;;;;;;;5.63;2.05;;;;;;;18.29;49.53;99989.63;10283110;27;65595;-77
2022/11/24 10:43:27;;;;;;;9.23;2.50;;;;;;;18.31;49.47;99993.69;10293503;27;65601;-77
2022/11/24 10:48:22;;;;;;;5.65;2.47;;;;;;;18.32;49.52;99998.03;10289379;27;66458;-78
2022/11/24 10:53:16;;;;;;;5.88;2.35;;;;;;;18.37;49.40;100003.44;10287768;27;67406;-77
2022/11/24 10:58:16;;;;;;;6.20;2.50;;;;;;;18.38;49.37;100001.50;10266631;27;65834;-78
2022/11/24 11:03:16;;;;;;;5.78;2.05;;;;;;;18.42;49.31;100002.50;10259225;27;65491;-79
2022/11/24 11:08:35;;;;;;;5.25;2.08;;;;;;;18.44;49.45;100005.78;10262827;27;66181;-78
2022/11/24 11:13:29;;;;;;;4.70;2.30;;;;;;;18.46;49.26;100003.50;10230799;27;66340;-79
2022/11/24 11:18:21;;;;;;;5.15;2.17;;;;;;;18.47;49.29;100010.63;10256679;27;65582;-79
2022/11/24 11:23:14;;;;;;;5.50;1.90;;;;;;;18.49;49.22;100017.44;10251653;27;65515;-79
2022/11/24 11:28:26;;;;;;;5.40;2.03;;;;;;;18.59;49.10;100033.72;10262264;27;66404;-79
2022/11/24 11:33:22;;;;;;;6.30;2.25;;;;;;;18.62;48.97;100026.78;10259904;27;65691;-79
2022/11/24 11:38:14;;;;;;;7.55;2.20;;;;;;;18.91;48.52;100032.69;10255177;27;66200;-78
2022/11/24 11:43:12;;;;;;;5.60;2.00;;;;;;;19.05;48.15;100026.31;10265625;27;65593;-78
2022/11/24 11:48:19;;;;;;;6.25;1.73;;;;;;;19.17;47.81;100038.38;10252510;27;66543;-78
2022/11/24 11:53:16;;;;;;;3.85;1.80;;;;;;;18.94;48.30;100037.56;10258724;27;66799;-78
2022/11/24 11:58:18;;;;;;;4.95;1.77;;;;;;;19.16;48.12;100034.00;10255212;27;66403;-79
2022/11/24 12:03:39;;;;;;;3.72;1.80;;;;;;;19.17;47.90;100035.63;10257997;27;66340;-78
2022/11/24 12:08:38;;;;;;;4.68;1.92;;;;;;;19.06;48.38;100044.44;10224191;27;66121;-78
2022/11/24 12:13:57;;;;;;;3.58;1.73;;;;;;;19.00;48.34;100052.00;10249360;27;65892;-78
2022/11/24 12:18:51;;;;;;;4.82;1.77;;;;;;;18.94;48.53;100048.56;10231078;27;65510;-78
2022/11/24 12:24:00;;;;;;;3.75;1.67;;;;;;;18.93;48.62;100051.59;10265817;27;65059;-79
2022/11/24 12:28:57;;;;;;;4.25;1.67;;;;;;;18.94;48.61;100050.50;10253400;27;64497;-79
2022/11/24 12:34:18;;;;;;;3.67;1.67;;;;;;;19.05;49.11;100062.03;10252741;27;66393;-78
2022/11/24 12:39:19;;;;;;;5.38;2.13;;;;;;;19.07;49.30;100066.09;10254265;27;66040;-81
2022/11/24 12:44:18;;;;;;;4.75;1.98;;;;;;;19.10;49.03;100064.69;10254506;27;66617;-81
2022/11/24 12:49:14;;;;;;;4.40;1.58;;;;;;;19.03;48.97;100073.34;10257113;27;66211;-80
2022/11/24 12:54:10;;;;;;;4.60;1.52;;;;;;;19.20;48.49;100070.72;10261631;27;64474;-79
2022/11/24 12:59:13;;;;;;;4.60;1.80;;;;;;;19.32;48.21;100068.25;10262306;27;66154;-79
2022/11/24 13:04:10;;;;;;;4.65;1.30;;;;;;;19.47;47.76;100072.56;10258617;27;66439;-79
2022/11/24 13:09:08;;;;;;;3.08;1.60;;;;;;;19.51;47.53;100076.31;10253089;27;67306;-80
2022/11/24 13:14:00;;;;;;;3.80;1.50;;;;;;;19.53;47.57;100087.00;10253662;27;66278;-79
2022/11/24 13:18:55;;;;;;;2.90;1.38;;;;;;;19.34;48.11;100079.72;10241097;27;66404;-79
2022/11/24 13:23:55;;;;;;;3.30;1.60;;;;;;;19.31;48.11;100088.59;10248218;27;66293;-81
2022/11/24 13:28:59;;;;;;;5.07;1.63;;;;;;;19.29;48.07;100092.78;10259900;27;66419;-80
2022/11/24 13:33:51;;;;;;;5.03;1.88;;;;;;;19.24;48.06;100093.72;10250301;27;66374;-79
2022/11/24 13:38:51;;;;;;;9.38;1.60;;;;;;;19.22;48.66;100095.16;10250012;27;65372;-78
2022/11/24 13:44:19;;;;;;;3.15;1.52;;;;;;;19.27;48.13;100103.25;10263262;27;65114;-80
2022/11/24 13:49:13;;;;;;;4.03;1.60;;;;;;;19.27;48.62;100111.50;10251830;27;66416;-78
2022/11/24 13:54:09;;;;;;;2.53;1.33;;;;;;;19.22;48.79;100111.63;10246260;27;66240;-78
2022/11/24 13:59:03;;;;;;;2.45;1.33;;;;;;;19.24;48.70;100101.16;10249829;27;66692;-75
2022/11/24 14:04:07;;;;;;;2.58;1.10;;;;;;;19.19;48.86;100113.06;10255035;27;65585;-77
2022/11/24 14:08:59;;;;;;;4.53;1.50;;;;;;;19.14;48.77;100102.19;10258576;27;65747;-78
2022/11/24 14:13:53;;;;;;;4.05;1.50;;;;;;;19.13;49.05;100105.25;10261219;27;65679;-77
2022/11/24 14:18:46;;;;;;;5.80;1.73;;;;;;;19.16;49.15;100101.91;10249423;27;66049;-80
2022/11/24 14:23:40;;;;;;;3.15;1.38;;;;;;;19.11;49.11;100097.34;10251826;27;66459;-79
2022/11/24 14:28:33;;;;;;;7.25;1.80;;;;;;;19.03;48.86;100092.59;10243058;27;66316;-75
2022/11/24 14:33:26;;;;;;;4.20;1.52;;;;;;;19.03;48.54;100095.34;10251718;27;66243;-78
2022/11/24 14:38:19;;;;;;;8.70;2.10;;;;;;;18.94;48.74;100109.00;10245891;27;65199;-79
2022/11/24 14:43:19;;;;;;;17.17;3.28;;;;;;;18.89;47.64;100103.63;10252150;27;64194;-79
2022/11/24 14:48:14;;;;;;;31.35;3.67;;;;;;;18.87;47.26;100110.53;10246548;27;66412;-77
2022/11/24 14:53:10;;;;;;;22.50;3.20;;;;;;;18.85;47.16;100113.59;10260427;27;66526;-76
2022/11/24 14:58:02;;;;;;;18.40;3.25;;;;;;;18.85;47.13;100110.84;10246755;27;66333;-76
2022/11/24 15:02:55;;;;;;;22.38;4.20;;;;;;;18.85;47.31;100110.84;10261902;27;66455;-76
2022/11/24 15:07:48;;;;;;;27.35;3.75;;;;;;;18.84;47.37;100113.91;10256709;27;65690;-76
2022/11/24 15:12:42;;;;;;;21.20;4.55;;;;;;;18.83;47.35;100112.25;10251533;27;66456;-76
2022/11/24 15:17:34;;;;;;;17.67;4.03;;;;;;;18.83;47.43;100124.06;10246015;27;65604;-76
2022/11/24 15:22:38;;;;;;;28.65;4.65;;;;;;;18.82;47.39;100132.63;10262459;27;66887;-75
2022/11/24 15:27:30;;;;;;;25.25;5.40;;;;;;;18.83;47.71;100136.97;10248817;27;65279;-77
2022/11/24 15:32:24;;;;;;;23.88;4.97;;;;;;;18.82;47.83;100138.91;10247788;27;66096;-77
2022/11/24 15:37:16;;;;;;;40.65;6.72;;;;;;;18.83;48.59;100139.72;10252414;27;65656;-77
2022/11/24 15:42:09;;;;;;;34.40;6.07;;;;;;;18.83;48.49;100148.78;10248485;27;65467;-77
2022/11/24 15:47:01;;;;;;;36.00;6.45;;;;;;;18.82;48.68;100155.41;10256051;27;66201;-77
2022/11/24 15:51:55;;;;;;;11.43;4.05;;;;;;;17.09;46.08;100165.06;10242206;27;66266;-81
2022/11/24 15:56:47;;;;;;;8.20;3.10;;;;;;;15.78;45.86;100170.91;10246886;27;65568;-80
2022/11/24 16:01:41;;;;;;;9.77;3.40;;;;;;;16.95;46.34;100175.13;10246475;27;65768;-78
2022/11/24 16:06:33;;;;;;;7.45;2.67;;;;;;;17.24;44.90;100178.53;10262773;27;66356;-77
2022/11/24 16:11:28;;;;;;;33.70;15.98;;;;;;;17.49;45.56;100187.50;10253525;27;65223;-77
2022/11/24 16:16:20;;;;;;;24.38;12.77;;;;;;;17.62;44.75;100187.56;10259232;27;65650;-75
2022/11/24 16:21:12;;;;;;;25.65;13.88;;;;;;;18.04;45.34;100189.31;10263025;27;66343;-79
2022/11/24 16:26:05;;;;;;;23.38;13.32;;;;;;;18.28;45.10;100178.19;10260218;27;66450;-81
2022/11/24 16:30:58;;;;;;;22.38;12.70;;;;;;;18.43;45.04;100185.31;10256483;27;65879;-79
2022/11/24 16:35:51;;;;;;;22.25;11.65;;;;;;;18.58;45.13;100193.28;10261166;27;65708;-78
2022/11/24 16:40:43;;;;;;;21.10;11.52;;;;;;;18.77;44.99;100202.22;10267267;27;66420;-80
2022/11/24 16:45:35;;;;;;;19.88;10.20;;;;;;;18.82;45.29;100204.84;10257615;27;65482;-78
2022/11/24 16:50:29;;;;;;;16.83;9.13;;;;;;;18.86;45.23;100199.56;10247075;27;65946;-82
2022/11/24 16:55:21;;;;;;;16.73;8.35;;;;;;;18.93;45.21;100205.44;10245114;27;64877;-82
2022/11/24 17:00:15;;;;;;;14.98;7.82;;;;;;;19.01;45.07;100201.97;10258012;27;65445;-82
2022/11/24 17:05:07;;;;;;;15.85;8.15;;;;;;;19.06;45.22;100204.63;10249325;27;65607;-81
2022/11/24 17:10:01;;;;;;;14.30;7.05;;;;;;;19.11;45.27;100196.28;10245136;27;64265;-90
2022/11/24 17:14:54;;;;;;;13.65;7.35;;;;;;;19.15;45.65;100208.25;10246982;27;66389;-79
2022/11/24 17:19:47;;;;;;;10.15;6.93;;;;;;;19.16;45.55;100212.66;10236599;27;66310;-80
2022/11/24 17:24:39;;;;;;;14.38;6.57;;;;;;;19.14;45.61;100217.63;10250785;27;66012;-79
2022/11/24 17:29:32;;;;;;;12.00;6.45;;;;;;;19.15;45.61;100227.50;10259837;27;66130;-79
2022/11/24 17:34:25;;;;;;;15.50;6.72;;;;;;;19.13;45.64;100224.25;10250822;27;65926;-79
2022/11/24 17:39:17;;;;;;;11.23;6.43;;;;;;;19.14;45.58;100223.13;10240549;27;65565;-78
2022/11/24 17:44:11;;;;;;;9.98;6.35;;;;;;;19.14;45.87;100227.81;10241968;27;66187;-78
2022/11/24 17:49:07;;;;;;;9.60;5.60;;;;;;;19.13;45.80;100226.16;10233037;27;66091;-77
2022/11/24 17:53:59;;;;;;;11.80;5.82;;;;;;;19.16;46.01;100242.06;10242309;27;65688;-80
2022/11/24 17:58:52;;;;;;;11.02;6.00;;;;;;;19.20;46.37;100249.38;10252493;27;65809;-80
2022/11/24 18:03:45;;;;;;;9.88;5.70;;;;;;;19.20;46.49;100241.13;10260100;27;66419;-79
2022/11/24 18:08:39;;;;;;;17.90;5.97;;;;;;;19.24;46.97;100255.06;10255944;27;66335;-77
2022/11/24 18:13:31;;;;;;;10.20;5.68;;;;;;;19.40;46.55;100253.63;10247655;27;65450;-78
2022/11/24 18:18:23;;;;;;;12.68;5.93;;;;;;;19.51;46.66;100257.78;10253641;27;66401;-77
2022/11/24 18:23:15;;;;;;;9.48;5.47;;;;;;;19.55;46.53;100258.00;10251586;27;65476;-79
2022/11/24 18:28:09;;;;;;;11.15;5.38;;;;;;;19.67;46.35;100266.50;10245466;27;65643;-80
2022/11/24 18:33:01;;;;;;;10.85;5.30;;;;;;;19.68;46.49;100262.63;10266171;27;65502;-78
2022/11/24 18:37:53;;;;;;;14.15;5.75;;;;;;;19.73;46.38;100263.31;10267060;27;65905;-79
2022/11/24 18:42:45;;;;;;;10.40;5.88;;;;;;;19.79;46.19;100258.50;10248901;27;65986;-75
2022/11/24 18:47:39;;;;;;;10.57;5.22;;;;;;;19.65;46.51;100266.81;10249960;27;66330;-77
2022/11/24 18:52:31;;;;;;;7.97;4.65;;;;;;;19.70;46.56;100268.66;10243753;27;66427;-77
2022/11/24 18:57:23;;;;;;;7.97;4.55;;;;;;;19.96;46.03;100258.66;10259182;27;66483;-76
2022/11/24 19:02:15;;;;;;;9.20;4.70;;;;;;;19.83;46.08;100266.97;10251737;27;66448;-74
2022/11/24 19:07:08;;;;;;;12.18;4.72;;;;;;;19.72;46.25;100266.38;10259951;27;65779;-75
2022/11/24 19:12:00;;;;;;;10.48;5.05;;;;;;;19.66;46.26;100264.88;10262774;27;65252;-75
2022/11/24 19:16:52;;;;;;;9.48;4.40;;;;;;;19.61;46.42;100259.50;10262101;27;65392;-75
2022/11/24 19:21:44;;;;;;;9.35;4.60;;;;;;;19.56;46.62;100257.66;10262827;27;66319;-76
2022/11/24 19:26:38;;;;;;;8.63;4.32;;;;;;;19.57;46.65;100258.47;10267915;27;65707;-75
2022/11/24 19:31:30;;;;;;;8.85;4.85;;;;;;;19.54;46.56;100251.69;10262017;27;66384;-76
2022/11/24 19:36:22;;;;;;;7.60;4.25;;;;;;;19.47;46.80;100250.47;10262880;27;66039;-76
2022/11/24 19:41:14;;;;;;;7.60;4.05;;;;;;;19.46;46.80;100268.06;10261717;27;65386;-73
2022/11/24 19:46:08;;;;;;;16.02;4.63;;;;;;;19.41;46.99;100258.00;10264750;27;65585;-75
2022/11/24 19:51:01;;;;;;;6.72;4.25;;;;;;;19.35;47.08;100245.47;10255247;27;66072;-73
2022/11/24 19:55:53;;;;;;;7.47;3.92;;;;;;;19.33;47.06;100262.31;10263375;27;66004;-74
2022/11/24 20:00:45;;;;;;;5.75;4.30;;;;;;;19.30;47.09;100257.41;10255945;27;66215;-73
2022/11/24 20:05:38;;;;;;;7.72;3.97;;;;;;;19.26;47.07;100261.09;10260526;27;65592;-75
2022/11/24 20:10:31;;;;;;;6.03;3.80;;;;;;;19.25;47.21;100262.22;10252165;27;65206;-75
2022/11/24 20:15:23;;;;;;;6.32;4.10;;;;;;;19.25;47.33;100257.53;10243542;27;66612;-75
2022/11/24 20:20:15;;;;;;;6.65;3.88;;;;;;;19.24;47.38;100266.06;10254960;27;66134;-75
2022/11/24 20:25:10;;;;;;;7.50;3.65;;;;;;;19.22;47.45;100271.88;10261662;27;65202;-75
2022/11/24 20:30:02;;;;;;;9.30;3.80;;;;;;;19.20;47.48;100271.34;10250299;27;66533;-76
2022/11/24 20:34:54;;;;;;;6.32;3.53;;;;;;;19.20;47.49;100270.53;10260459;27;66161;-75
2022/11/24 20:39:47;;;;;;;5.75;3.47;;;;;;;19.17;47.55;100266.50;10254487;27;64672;-75
2022/11/24 20:44:40;;;;;;;8.00;3.80;;;;;;;19.18;47.70;100276.38;10255082;27;66264;-75
2022/11/24 20:49:32;;;;;;;5.80;3.33;;;;;;;19.18;47.70;100272.81;10254650;27;65520;-75
2022/11/24 20:54:24;;;;;;;6.90;3.78;;;;;;;19.17;47.58;100277.50;10258848;27;66110;-75
2022/11/24 20:59:18;;;;;;;6.70;3.35;;;;;;;19.16;47.65;100275.03;10259224;27;65496;-76
2022/11/24 21:04:13;;;;;;;4.22;3.10;;;;;;;19.19;47.66;100271.69;10247921;27;67041;-77
2022/11/24 21:09:05;;;;;;;6.43;3.17;;;;;;;19.19;47.73;100268.94;10267316;27;64105;-76
2022/11/24 21:13:57;;;;;;;9.40;3.85;;;;;;;19.17;47.85;100252.75;10235339;27;65318;-73
